Nearby METAR Reports



KADS - Dallas/Addison, Texas, USA
Distance from station: SSW 10mi, 16km
Updated: Sun, 17-Jun-2018 5:50pm CDT
Partly cloudy
Partly cloudy
 Wind from ESE
Wind: ESE 17 mph , 28 km/h
Temperature: 93°F , 34°C
Heat Index: 97°F , 36°C
Dew Point: 68°F , 20°C
Humidity: 44%
Barometer: 29.91 inHg , 1012.9 hPa
Clouds: Partly cloudy
Visibility: 10 miles , 16 km
Cloud details: Partly cloudy 5000 ft
2018/06/17 22:50 KADS 172250Z 11015KT 10SM SCT050 34/20 A2991
KTKI - Mckinney, Texas, USA
Distance from station: ENE 11mi, 18km
Updated: Sun, 17-Jun-2018 5:53pm CDT
Clear
Clear
 Wind from SE
Wind: SE 8 mph , 13 km/h
Temperature: 93°F , 34°C
Heat Index: 99°F , 37°C
Dew Point: 70°F , 21°C
Humidity: 47%
Barometer: 29.91 inHg , 1012.9 hPa
Clouds: Clear
Visibility: 10 miles , 16 km
2018/06/17 22:53 KTKI 172253Z 13007KT 10SM CLR 34/21 A2991 RMK AO2 SLP121 T03390211
 
KDAL - Dallas/Love Fld, Texas, USA
Distance from station: SSW 18mi, 30km
Updated: Sun, 17-Jun-2018 5:53pm CDT
Mostly cloudy
Mostly cloudy
 Wind from ESE
Wind: ESE 15 mph , 24 km/h, Gust: 23 mph , 37 km/h
Temperature: 95°F , 35°C
Heat Index: 101°F , 38°C
Dew Point: 70°F , 21°C
Humidity: 44%
Barometer: 29.89 inHg , 1012.2 hPa
Clouds: Mostly cloudy
Visibility: 10 miles , 16 km
Cloud details: Partly cloudy 6000 ft
Mostly cloudy 8000 ft
Mostly cloudy 12000 ft
Mostly cloudy 30000 ft
2018/06/17 22:53 KDAL 172253Z 12013G20KT 10SM SCT060CB BKN080 BKN120 BKN300 35/21 A2989 RMK AO2 SLP114 CB E AND DSNT SE-S MOV NW TCU N-E-OHD-SW AND DSNT S NW T03500211
KDFW - Dallas/Ft Worth, Texas, USA
Distance from station: SW 21mi, 34km
Updated: Sun, 17-Jun-2018 5:53pm CDT
Partly cloudy
Partly cloudy
 Wind from SE
Wind: SE 17 mph , 28 km/h, Gust: 21 mph , 33 km/h
Temperature: 93°F , 34°C
Heat Index: 99°F , 37°C
Dew Point: 70°F , 21°C
Humidity: 47%
Barometer: 29.88 inHg , 1011.9 hPa
Clouds: Partly cloudy
Visibility: 10 miles , 16 km
Cloud details: Partly cloudy 5500 ft
Partly cloudy 25000 ft
2018/06/17 22:53 KDFW 172253Z 13015G18KT 10SM SCT055 SCT250 34/21 A2988 RMK AO2 SLP109 CB DSNT E-S MOV NW T03440206
 
KF46 - Rockwall, Texas, USA
Distance from station: ESE 22mi, 35km
Updated: Sun, 17-Jun-2018 6:35pm CDT
Overcast
Overcast
 Wind from ESE
Wind: ESE 12 mph , 19 km/h, Gust: 17 mph , 28 km/h
Temperature: 91°F , 33°C
Heat Index: 98°F , 37°C
Dew Point: 72°F , 22°C
Humidity: 52%
Barometer: 29.90 inHg , 1012.5 hPa
Clouds: Overcast
Visibility: 10 miles , 16 km
Cloud details: Partly cloudy 5500 ft
Overcast 9500 ft
2018/06/17 23:35 KF46 172335Z AUTO 12010G15KT 10SM SCT055 OVC095 33/22 A2990 RMK AO2 T03320217
KDTO - Denton, Texas, USA
Distance from station: WNW 27mi, 43km
Updated: Sun, 17-Jun-2018 5:53pm CDT
Few Clouds
Few Clouds
 Wind from SE
Wind: SE 15 mph , 24 km/h
Temperature: 93°F , 34°C
Heat Index: 99°F , 37°C
Dew Point: 70°F , 21°C
Humidity: 47%
Barometer: 29.89 inHg , 1012.2 hPa
Clouds: Few Clouds
Visibility: 10 miles , 16 km
Cloud details: Few Clouds 5500 ft
2018/06/17 22:53 KDTO 172253Z 14013KT 10SM FEW055 34/21 A2989 RMK AO2 SLP112 T03390206 $
 
KHQZ - Mesquite, Texas, USA
Distance from station: SSE 28mi, 44km
Updated: Sun, 17-Jun-2018 5:50pm CDT
Mostly cloudy
Mostly cloudy
 Wind from SE
Wind: SE 9 mph , 15 km/h
Temperature: 90°F , 32°C
Heat Index: 94°F , 34°C
Dew Point: 68°F , 20°C
Humidity: 49%
Barometer: 29.91 inHg , 1012.9 hPa
Clouds: Mostly cloudy
Visibility: 10 miles , 16 km
Cloud details: Partly cloudy 5500 ft
Mostly cloudy 9000 ft
2018/06/17 22:50 KHQZ 172250Z 14008KT 10SM SCT055 BKN090 32/20 A2991
KRBD - Dallas/Redbird, Texas, USA
Distance from station: SSW 30mi, 48km
Updated: Sun, 17-Jun-2018 5:53pm CDT
Mostly cloudy
Mostly cloudy
 Wind from SSE
Wind: SSE 14 mph , 22 km/h
Temperature: 93°F , 34°C
Heat Index: 99°F , 37°C
Dew Point: 70°F , 21°C
Humidity: 47%
Barometer: 29.90 inHg , 1012.5 hPa
Clouds: Mostly cloudy
Visibility: 10 miles , 16 km
Cloud details: Mostly cloudy 8500 ft
Mostly cloudy 11000 ft
2018/06/17 22:53 KRBD 172253Z 15012KT 10SM BKN085 BKN110 34/21 A2990 RMK AO2 SLP113 T03390211 $
 
KGPM - Grand Prairie, Texas, USA
Distance from station: SSW 33mi, 53km
Updated: Sun, 17-Jun-2018 5:50pm CDT
Clear
Clear
 Wind from E
Wind: E 12 mph , 19 km/h, Gust: 18 mph , 30 km/h
Temperature: 93°F , 34°C
Dew Point: 64°F , 18°C
Humidity: 39%
Barometer: 29.91 inHg , 1012.9 hPa
Clouds: Clear
Visibility: 10 miles , 16 km
2018/06/17 22:50 KGPM 172250Z 09010G16KT 10SM SKC 34/18 A2991
KAFW - Ft Worth/Allianc, Texas, USA
Distance from station: WSW 34mi, 55km
Updated: Sun, 17-Jun-2018 5:53pm CDT
Mostly cloudy
Mostly cloudy
 Wind from ESE
Wind: ESE 18 mph , 30 km/h, Gust: 25 mph , 41 km/h
Temperature: 95°F , 35°C
Heat Index: 101°F , 38°C
Dew Point: 70°F , 21°C
Humidity: 44%
Barometer: 29.88 inHg , 1011.9 hPa
Clouds: Mostly cloudy
Visibility: 10 miles , 16 km
Cloud details: Few Clouds 5500 ft
Mostly cloudy 30000 ft
2018/06/17 22:53 KAFW 172253Z 12016G22KT 10SM FEW055 BKN300 35/21 A2988 RMK AO2 SLP102 T03500206
 
KLNC - Lancaster, Texas, USA
Distance from station: S 36mi, 58km
Updated: Sun, 17-Jun-2018 6:35pm CDT
Partly cloudy
Partly cloudy
 Wind from SE
Wind: SE 16 mph , 26 km/h, Gust: 26 mph , 43 km/h
Temperature: 90°F , 32°C
Heat Index: 96°F , 36°C
Dew Point: 70°F , 21°C
Humidity: 52%
Barometer: 29.91 inHg , 1012.9 hPa
Clouds: Partly cloudy
Visibility: 10 miles , 16 km
Cloud details: Partly cloudy 4700 ft
Partly cloudy 6000 ft
2018/06/17 23:35 KLNC 172335Z AUTO 14014G23KT 10SM SCT047 SCT060 32/21 A2991 RMK AO2 T03240213
KGKY - Arlington, Texas, USA
Distance from station: SSW 36mi, 59km
Updated: Sun, 17-Jun-2018 5:53pm CDT
Few Clouds
Few Clouds
 Wind from ESE
Wind: ESE 18 mph , 30 km/h, Gust: 24 mph , 39 km/h
Temperature: 93°F , 34°C
Heat Index: 100°F , 38°C
Dew Point: 72°F , 22°C
Humidity: 49%
Barometer: 29.89 inHg , 1012.2 hPa
Clouds: Few Clouds
Visibility: 10 miles , 16 km
Cloud details: Few Clouds 6000 ft
2018/06/17 22:53 KGKY 172253Z 12016G21KT 10SM FEW060 34/22 A2989 RMK AO2 SLP113 T03390217
 
KTRL - Terrell, Texas, USA
Distance from station: SE 39mi, 63km
Updated: Sun, 17-Jun-2018 5:53pm CDT
Mostly cloudy
Mostly cloudy
 Wind from SE
Wind: SE 9 mph , 15 km/h
Temperature: 93°F , 34°C
Heat Index: 97°F , 36°C
Dew Point: 68°F , 20°C
Humidity: 44%
Barometer: 29.91 inHg , 1012.9 hPa
Clouds: Mostly cloudy
Visibility: 10 miles , 16 km
Cloud details: Few Clouds 9000 ft
Mostly cloudy 11000 ft
2018/06/17 22:53 KTRL 172253Z AUTO 13008KT 10SM FEW090 BKN110 34/20 A2991 RMK AO2 LTG DSNT S SLP120 T03390200
KGVT - Greenville/Major, Texas, USA
Distance from station: E 40mi, 64km
Updated: Sun, 17-Jun-2018 6:30pm CDT
Partly cloudy
Partly cloudy
 Wind from ESE
Wind: ESE 13 mph , 20 km/h, Gust: 17 mph , 28 km/h
Temperature: 95°F , 35°C
Dew Point: 66°F , 19°C
Humidity: 39%
Barometer: 29.91 inHg , 1012.9 hPa
Clouds: Partly cloudy
Visibility: 10 miles , 16 km
Cloud details: Partly cloudy 6000 ft
Partly cloudy 6500 ft
2018/06/17 23:30 KGVT 172330Z AUTO 12011G15KT 10SM SCT060 SCT065 35/19 A2991 RMK AO2
 
KFTW - Fort Worth, Texas, USA
Distance from station: WSW 40mi, 65km
Updated: Sun, 17-Jun-2018 5:53pm CDT
Clear
Clear
 Wind from SE
Wind: SE 18 mph , 30 km/h
Temperature: 97°F , 36°C
Heat Index: 104°F , 40°C
Dew Point: 70°F , 21°C
Humidity: 42%
Barometer: 29.88 inHg , 1011.9 hPa
Clouds: Clear
Visibility: 10 miles , 16 km
2018/06/17 22:53 KFTW 172253Z 14016KT 10SM CLR 36/21 A2988 RMK AO2 SLP108 T03610206
KGYI - Sherman/Denison, Texas, USA
Distance from station: N 43mi, 69km
Updated: Sun, 17-Jun-2018 6:35pm CDT
Clear
Clear
 Wind from SE
Wind: SE 12 mph , 19 km/h, Gust: 18 mph , 30 km/h
Temperature: 91°F , 33°C
Heat Index: 96°F , 36°C
Dew Point: 70°F , 21°C
Humidity: 49%
Barometer: 29.93 inHg , 1013.5 hPa
Clouds: Clear
Visibility: 10 miles , 16 km
2018/06/17 23:35 KGYI 172335Z AUTO 13010G16KT 10SM CLR 33/21 A2993 RMK AO2 T03320205
 
KNFW - Fort Worth Nas, Texas, USA
Distance from station: WSW 45mi, 73km
Updated: Sun, 17-Jun-2018 5:52pm CDT
Clear
Clear
 Wind from SE
Wind: SE 15 mph , 24 km/h, Gust: 23 mph , 37 km/h
Temperature: 95°F , 35°C
Dew Point: 66°F , 19°C
Humidity: 39%
Barometer: 29.89 inHg , 1012.2 hPa
Clouds: Clear
Visibility: 10 miles , 16 km
2018/06/17 22:52 KNFW 172252Z AUTO 14013G20KT 10SM CLR 35/19 A2989 RMK AO2 SLP105 T03500189 $
KGLE - Gainesville, Texas, USA
Distance from station: NW 46mi, 74km
Updated: Wed, 13-Jun-2018 9:55am CDT
NOT Current
Clear
Clear
 Wind from S
Wind: S 14 mph , 22 km/h
Temperature: 81°F , 27°C
Heat Index: 85°F , 29°C
Dew Point: 70°F , 21°C
Humidity: 70%
Barometer: 30.06 inHg , 1017.9 hPa
Clouds: Clear
Visibility: 10 miles , 16 km
2018/06/13 14:55 KGLE 131455Z AUTO 19012KT 10SM CLR 27/21 A3006 RMK AO2 T02700207
 
KJWY - Midlothian/Wax, Texas, USA
Distance from station: SSW 46mi, 74km
Updated: Sun, 17-Jun-2018 6:35pm CDT
Clear
Clear
 Wind from E
Wind: E 9 mph , 15 km/h, Gust: 16 mph , 26 km/h
Temperature: 91°F , 33°C
Heat Index: 96°F , 36°C
Dew Point: 70°F , 21°C
Humidity: 49%
Barometer: 29.91 inHg , 1012.9 hPa
Clouds: Clear
Visibility: 10 miles , 16 km
2018/06/17 23:35 KJWY 172335Z AUTO 10008G14KT 10SM CLR 33/21 A2991 RMK AO2 T03300212
KFWS - Fort Worth/88d, Texas, USA
Distance from station: SW 49mi, 79km
Updated: Sun, 17-Jun-2018 5:55pm CDT
Mostly cloudy
Mostly cloudy
 Wind from ESE
Wind: ESE 14 mph , 22 km/h
Temperature: 95°F , 35°C
Dew Point: 66°F , 19°C
Humidity: 39%
Barometer: 29.91 inHg , 1012.9 hPa
Clouds: Mostly cloudy
Visibility: 10 miles , 16 km
Cloud details: Mostly cloudy 5000 ft
2018/06/17 22:55 KFWS 172255Z 11012KT 10SM BKN050 35/19 A2991